Time;durP1;ratioP1;P1;durP2;ratioP2;P2;SDS_P1;SDS_P2;PMS_P1;PMS_P2;Temp;Humidity;BMP_temperature;BMP_pressure;BME280_temperature;BME280_humidity;BME280_pressure;Samples;Min_cycle;Max_cycle;Signal;HPM_P1;HPM_P2
2022/10/08 00:00:44;;;;;;;5.00;1.90;;;9.50;99.90;;;;;;5074967;28;20634;-81
2022/10/08 00:03:11;;;;;;;3.73;1.77;;;9.30;99.90;;;;;;5075453;28;20194;-81
2022/10/08 00:05:37;;;;;;;6.43;2.10;;;9.00;99.90;;;;;;5074945;28;20190;-81
2022/10/08 00:08:04;;;;;;;2.87;2.37;;;8.90;99.90;;;;;;5075258;28;20225;-81
2022/10/08 00:10:32;;;;;;;7.53;2.03;;;8.90;99.90;;;;;;5074350;28;20210;-81
2022/10/08 00:12:59;;;;;;;4.27;2.10;;;8.80;99.90;;;;;;5074742;28;20601;-81
2022/10/08 00:15:27;;;;;;;5.67;2.37;;;8.80;99.90;;;;;;5075039;28;20678;-81
2022/10/08 00:17:54;;;;;;;5.93;1.93;;;8.80;99.90;;;;;;5075174;28;20213;-82
2022/10/08 00:20:21;;;;;;;6.20;2.00;;;8.80;99.90;;;;;;5074422;28;20202;-81
2022/10/08 00:22:48;;;;;;;4.93;2.20;;;8.90;99.90;;;;;;5074756;28;20202;-80
2022/10/08 00:25:15;;;;;;;7.57;2.23;;;8.80;99.90;;;;;;5074003;28;20340;-81
2022/10/08 00:27:42;;;;;;;3.87;2.10;;;8.70;99.90;;;;;;5074608;28;20309;-81
2022/10/08 00:30:10;;;;;;;5.17;2.00;;;8.80;99.90;;;;;;5074423;28;20204;-81
2022/10/08 00:32:38;;;;;;;8.70;2.50;;;8.80;99.90;;;;;;5073796;28;20226;-81
2022/10/08 00:35:05;;;;;;;4.57;1.90;;;8.80;99.90;;;;;;5074324;28;20198;-81
2022/10/08 00:37:32;;;;;;;6.53;2.30;;;8.90;99.90;;;;;;5074031;28;20305;-81
2022/10/08 00:39:59;;;;;;;6.33;2.10;;;8.80;99.90;;;;;;5074366;28;20224;-81
2022/10/08 00:42:26;;;;;;;2.90;1.80;;;8.90;99.90;;;;;;5074174;28;20552;-81
2022/10/08 00:44:56;;;;;;;4.63;2.00;;;8.90;99.90;;;;;;5074281;28;20195;-80
2022/10/08 00:47:31;;;;;;;7.80;2.20;;;8.80;99.90;;;;;;5074968;28;20249;-81
2022/10/08 00:50:03;;;;;;;5.43;2.40;;;8.80;99.90;;;;;;5073566;28;20198;-81
2022/10/08 00:52:34;;;;;;;4.73;1.90;;;8.60;99.90;;;;;;5073871;28;20205;-81
2022/10/08 00:55:05;;;;;;;4.93;2.17;;;8.70;99.90;;;;;;5074733;28;20544;-81
2022/10/08 00:57:33;;;;;;;5.43;2.23;;;8.70;99.90;;;;;;5067984;28;20223;-81
2022/10/08 01:00:02;;;;;;;6.03;2.30;;;8.90;99.90;;;;;;5066816;28;20620;-81
2022/10/08 01:02:29;;;;;;;8.17;2.20;;;8.70;99.90;;;;;;5070323;28;20198;-81
2022/10/08 01:04:56;;;;;;;6.30;2.20;;;8.70;99.90;;;;;;5054953;28;20669;-80
2022/10/08 01:07:29;;;;;;;5.87;2.63;;;8.80;99.90;;;;;;5064342;28;20226;-80
2022/10/08 01:10:01;;;;;;;4.53;1.70;;;8.90;99.90;;;;;;5057663;28;20206;-81
2022/10/08 01:12:40;;;;;;;4.93;2.20;;;8.90;99.90;;;;;;5077347;28;20577;-81
2022/10/08 01:15:14;;;;;;;5.33;2.33;;;9.00;99.90;;;;;;5077193;28;20190;-81
2022/10/08 01:17:49;;;;;;;5.03;2.47;;;9.10;99.90;;;;;;5075209;28;20240;-81
2022/10/08 01:20:36;;;;;;;4.30;2.00;;;9.00;99.90;;;;;;5076911;28;20202;-80
2022/10/08 01:23:25;;;;;;;5.20;2.23;;;9.10;99.90;;;;;;5059335;28;20198;-81
2022/10/08 01:25:56;;;;;;;5.20;2.10;;;9.10;99.90;;;;;;5077332;28;20206;-81
2022/10/08 01:28:30;;;;;;;5.53;2.20;;;9.00;99.90;;;;;;5076706;28;20194;-81
2022/10/08 01:31:04;;;;;;;4.83;1.90;;;9.30;99.90;;;;;;5060345;28;20203;-81
2022/10/08 01:33:38;;;;;;;6.90;2.07;;;9.10;99.90;;;;;;5076852;28;20198;-81
2022/10/08 01:36:07;;;;;;;5.60;2.30;;;9.10;99.90;;;;;;5076308;28;20214;-81
2022/10/08 01:38:39;;;;;;;6.97;2.43;;;9.20;99.90;;;;;;5076819;28;20194;-81
2022/10/08 01:41:09;;;;;;;9.10;2.57;;;9.20;99.90;;;;;;5075332;28;20212;-81
2022/10/08 01:43:41;;;;;;;5.17;2.00;;;9.10;99.90;;;;;;5077072;28;20570;-81
2022/10/08 01:46:12;;;;;;;7.97;2.53;;;9.20;99.90;;;;;;5076800;28;20198;-81
2022/10/08 01:48:41;;;;;;;5.93;2.00;;;9.20;99.90;;;;;;5074017;28;20583;-81
2022/10/08 01:51:13;;;;;;;9.80;2.30;;;9.40;99.90;;;;;;5059844;28;20232;-81
2022/10/08 01:53:42;;;;;;;6.73;2.33;;;9.40;99.90;;;;;;5075725;28;20198;-80
2022/10/08 01:56:13;;;;;;;9.07;2.67;;;9.30;99.90;;;;;;5075155;28;20202;-81
2022/10/08 01:58:48;;;;;;;7.67;2.30;;;9.30;99.90;;;;;;5074457;28;20641;-81
2022/10/08 02:01:22;;;;;;;8.30;2.23;;;9.50;99.90;;;;;;5058722;28;20281;-80
2022/10/08 02:06:33;;;;;;;6.43;2.00;;;9.10;99.90;;;;;;5062242;28;20214;-81
2022/10/08 02:09:01;;;;;;;8.33;2.97;;;8.80;99.90;;;;;;5075825;28;20545;-80
2022/10/08 02:11:28;;;;;;;7.40;2.10;;;8.90;99.90;;;;;;5073726;28;20226;-81
2022/10/08 02:13:57;;;;;;;4.13;2.10;;;8.80;99.90;;;;;;5076389;28;20195;-81
2022/10/08 02:16:29;;;;;;;4.10;2.07;;;8.60;99.90;;;;;;5076135;28;20248;-81
2022/10/08 02:19:02;;;;;;;6.73;2.80;;;8.70;99.90;;;;;;5076938;28;20190;-81
2022/10/08 02:21:30;;;;;;;7.60;2.43;;;8.70;99.90;;;;;;5074668;28;20195;-81
2022/10/08 02:24:08;;;;;;;6.90;2.33;;;8.60;99.90;;;;;;5075813;28;20205;-81
2022/10/08 02:26:39;;;;;;;5.37;2.50;;;8.60;99.90;;;;;;5075752;28;20233;-81
2022/10/08 02:29:14;;;;;;;5.40;2.10;;;8.60;99.90;;;;;;5077104;28;20218;-81
2022/10/08 02:31:46;;;;;;;5.70;2.80;;;8.60;99.90;;;;;;5073996;28;20859;-80
2022/10/08 02:34:17;;;;;;;6.30;2.23;;;8.70;99.90;;;;;;5072536;28;20202;-81
2022/10/08 02:36:47;;;;;;;5.37;1.90;;;8.50;99.90;;;;;;5072786;28;20234;-81
2022/10/08 02:39:15;;;;;;;7.60;2.63;;;8.70;99.90;;;;;;5063867;28;20570;-81
2022/10/08 02:41:46;;;;;;;17.27;3.17;;;9.10;99.90;;;;;;5076255;28;20199;-81
2022/10/08 02:44:20;;;;;;;6.53;2.10;;;9.00;99.90;;;;;;5075006;28;20194;-81
2022/10/08 02:46:52;;;;;;;5.90;2.30;;;9.10;99.90;;;;;;5075189;28;20308;-81
2022/10/08 02:49:23;;;;;;;9.77;2.20;;;9.50;99.90;;;;;;5075770;28;20702;-81
2022/10/08 02:51:52;;;;;;;5.63;2.13;;;9.70;99.90;;;;;;5076203;28;20222;-81
2022/10/08 02:54:21;;;;;;;5.03;2.30;;;10.00;99.90;;;;;;5076048;28;20205;-81
2022/10/08 02:56:52;;;;;;;10.37;2.60;;;10.20;99.90;;;;;;5076443;28;20214;-81
2022/10/08 02:59:21;;;;;;;7.80;2.30;;;10.30;99.90;;;;;;5075422;28;20197;-81
2022/10/08 03:01:51;;;;;;;7.37;2.37;;;10.30;99.90;;;;;;5073752;28;20204;-81
2022/10/08 03:04:23;;;;;;;9.30;2.37;;;10.30;99.90;;;;;;5068866;28;20209;-81
2022/10/08 03:06:51;;;;;;;7.73;2.50;;;10.50;99.90;;;;;;5065791;28;20735;-80
2022/10/08 03:09:21;;;;;;;13.77;2.87;;;10.50;99.90;;;;;;5065466;28;20215;-81
2022/10/08 03:11:48;;;;;;;10.93;2.77;;;10.80;99.90;;;;;;5068704;28;20290;-81
2022/10/08 03:14:18;;;;;;;10.43;2.50;;;10.90;99.90;;;;;;5071148;28;20201;-81
2022/10/08 03:16:47;;;;;;;8.37;2.50;;;11.00;99.90;;;;;;5072555;28;20214;-81
2022/10/08 03:19:16;;;;;;;9.10;2.27;;;10.70;99.90;;;;;;5075306;28;20206;-81
2022/10/08 03:21:45;;;;;;;9.07;2.70;;;10.90;99.90;;;;;;5073091;28;20212;-81
2022/10/08 03:24:13;;;;;;;7.00;2.20;;;10.90;99.90;;;;;;5075166;28;20566;-81
2022/10/08 03:26:40;;;;;;;5.43;2.53;;;10.90;99.90;;;;;;5075127;28;20229;-81
2022/10/08 03:29:08;;;;;;;10.33;2.73;;;10.90;99.90;;;;;;5076183;28;20340;-81
2022/10/08 03:31:35;;;;;;;10.00;2.33;;;10.90;99.90;;;;;;5071929;28;20218;-81
2022/10/08 03:34:04;;;;;;;8.10;2.03;;;10.90;99.90;;;;;;5072245;28;20612;-81
2022/10/08 03:36:31;;;;;;;8.87;2.63;;;10.90;99.90;;;;;;5063240;28;20230;-81
2022/10/08 03:38:58;;;;;;;7.97;2.50;;;10.90;99.90;;;;;;5075426;28;20698;-81
2022/10/08 03:41:24;;;;;;;7.87;2.47;;;11.00;99.90;;;;;;5072419;28;20222;-81
2022/10/08 03:43:51;;;;;;;8.57;2.50;;;10.90;99.90;;;;;;5074703;28;20208;-81
2022/10/08 03:46:18;;;;;;;8.43;2.37;;;11.00;99.90;;;;;;5072541;28;20281;-81
2022/10/08 03:48:48;;;;;;;8.13;2.60;;;10.90;99.90;;;;;;5072533;28;20194;-81
2022/10/08 03:51:19;;;;;;;11.83;2.40;;;11.20;99.90;;;;;;5074597;28;20216;-81
2022/10/08 03:53:45;;;;;;;8.63;2.37;;;11.10;99.90;;;;;;5073888;28;20222;-81
2022/10/08 03:56:15;;;;;;;12.87;3.30;;;11.10;99.90;;;;;;5075090;28;20209;-81
2022/10/08 03:58:42;;;;;;;5.80;2.00;;;11.00;99.90;;;;;;5075577;28;20214;-81
2022/10/08 04:01:12;;;;;;;6.70;1.97;;;11.00;99.90;;;;;;5074480;28;20194;-81
2022/10/08 04:03:39;;;;;;;8.70;2.40;;;10.80;99.90;;;;;;5059170;28;20208;-81
2022/10/08 04:06:06;;;;;;;8.63;2.10;;;10.80;99.90;;;;;;5061674;28;20205;-81
2022/10/08 04:08:35;;;;;;;8.23;2.33;;;10.80;99.90;;;;;;5072927;28;20194;-82
2022/10/08 04:11:03;;;;;;;10.67;2.57;;;10.70;99.90;;;;;;5069488;28;20686;-81
2022/10/08 04:13:30;;;;;;;10.37;2.80;;;10.60;99.90;;;;;;5074720;28;20226;-81
2022/10/08 04:16:01;;;;;;;10.03;2.47;;;10.50;99.90;;;;;;5075397;28;20205;-82
2022/10/08 04:18:28;;;;;;;10.00;3.00;;;10.60;99.90;;;;;;5074451;28;20285;-80
2022/10/08 04:20:58;;;;;;;7.87;2.67;;;10.50;99.90;;;;;;5072257;28;20567;-82
2022/10/08 04:23:25;;;;;;;7.67;2.47;;;10.40;99.90;;;;;;5074699;28;20203;-82
2022/10/08 04:25:54;;;;;;;6.67;2.40;;;10.50;99.90;;;;;;5073196;28;20225;-81
2022/10/08 04:28:21;;;;;;;8.37;2.23;;;10.40;99.90;;;;;;5075112;28;20195;-82
2022/10/08 04:30:56;;;;;;;13.77;3.07;;;10.40;99.90;;;;;;5070704;28;20230;-82
2022/10/08 04:33:23;;;;;;;6.40;2.40;;;10.40;99.90;;;;;;5054080;28;20211;-81
2022/10/08 04:35:50;;;;;;;7.37;2.50;;;10.40;99.90;;;;;;5056145;28;20205;-81
2022/10/08 04:38:16;;;;;;;8.03;2.60;;;10.50;99.90;;;;;;5062300;28;20225;-80
2022/10/08 04:40:43;;;;;;;10.07;2.77;;;10.50;99.90;;;;;;5070380;28;20213;-81
2022/10/08 04:43:12;;;;;;;4.87;2.07;;;10.60;99.90;;;;;;5071339;28;20281;-80
2022/10/08 04:45:43;;;;;;;7.27;2.87;;;10.50;99.90;;;;;;5067573;28;20202;-81
2022/10/08 04:48:10;;;;;;;9.67;2.97;;;10.60;99.90;;;;;;5071053;28;20218;-81
2022/10/08 04:50:37;;;;;;;7.87;2.87;;;10.60;99.90;;;;;;5073280;28;20204;-81
2022/10/08 04:53:04;;;;;;;5.77;2.57;;;10.50;99.90;;;;;;5061227;28;20701;-80
2022/10/08 04:55:31;;;;;;;9.43;2.63;;;10.60;99.90;;;;;;5067713;28;20198;-81
2022/10/08 04:57:58;;;;;;;7.87;3.43;;;10.70;99.90;;;;;;5066186;28;20244;-81
2022/10/08 05:00:26;;;;;;;7.47;2.40;;;10.70;99.90;;;;;;5072989;28;20276;-81
2022/10/08 05:02:53;;;;;;;5.23;2.87;;;10.80;99.90;;;;;;5070185;28;20253;-80
2022/10/08 05:05:20;;;;;;;10.47;3.67;;;10.80;99.90;;;;;;5066693;28;20610;-80
2022/10/08 05:07:47;;;;;;;8.27;3.10;;;10.90;99.90;;;;;;5066200;28;20717;-80
2022/10/08 05:10:15;;;;;;;10.73;3.07;;;11.00;99.90;;;;;;5066764;28;20256;-80
2022/10/08 05:12:42;;;;;;;11.97;3.57;;;11.10;99.90;;;;;;5060946;28;20873;-80
2022/10/08 05:15:10;;;;;;;12.40;3.27;;;11.20;99.90;;;;;;5056959;28;20214;-79
2022/10/08 05:17:38;;;;;;;8.97;3.07;;;11.10;99.90;;;;;;5068924;28;20304;-81
2022/10/08 05:20:05;;;;;;;12.80;3.90;;;11.20;99.90;;;;;;5071995;28;20209;-81
2022/10/08 05:22:32;;;;;;;12.50;4.27;;;11.20;99.90;;;;;;5070805;28;20277;-81
2022/10/08 05:24:59;;;;;;;6.83;2.70;;;11.20;99.90;;;;;;5069259;28;20233;-80
2022/10/08 05:27:26;;;;;;;8.87;2.83;;;11.30;99.90;;;;;;5062530;28;20602;-80
2022/10/08 05:29:53;;;;;;;6.87;2.97;;;11.40;99.90;;;;;;5065526;28;20202;-80
2022/10/08 05:32:19;;;;;;;10.53;2.80;;;11.40;99.90;;;;;;5072859;28;20218;-81
2022/10/08 05:34:47;;;;;;;10.03;2.97;;;11.50;99.90;;;;;;5065839;28;20194;-81
2022/10/08 05:37:14;;;;;;;9.30;2.93;;;11.50;99.90;;;;;;5067183;28;20253;-81
2022/10/08 05:39:41;;;;;;;7.37;3.10;;;11.50;99.90;;;;;;5071338;28;20203;-81
2022/10/08 05:42:08;;;;;;;9.70;3.00;;;11.60;99.90;;;;;;5071217;28;20203;-80
2022/10/08 05:44:35;;;;;;;8.77;2.93;;;11.50;99.90;;;;;;5070487;28;20206;-81
2022/10/08 05:47:02;;;;;;;12.43;2.97;;;11.60;99.90;;;;;;5065091;28;20236;-81
2022/10/08 05:49:28;;;;;;;9.73;3.63;;;11.60;99.90;;;;;;5072017;28;20214;-81
2022/10/08 05:51:57;;;;;;;10.97;2.73;;;11.60;99.90;;;;;;5066719;28;20209;-80
2022/10/08 05:54:24;;;;;;;14.37;3.27;;;11.60;99.90;;;;;;5071642;28;20253;-81
2022/10/08 05:56:51;;;;;;;11.33;3.50;;;11.70;99.90;;;;;;5074463;28;20233;-81
2022/10/08 05:59:20;;;;;;;9.60;2.90;;;11.70;99.90;;;;;;5071573;28;20205;-81
2022/10/08 06:01:47;;;;;;;7.20;3.47;;;11.70;99.90;;;;;;5066840;28;20233;-80
2022/10/08 06:04:14;;;;;;;12.20;3.80;;;11.90;99.90;;;;;;5074750;28;20207;-81
2022/10/08 06:06:44;;;;;;;9.63;4.27;;;11.70;99.90;;;;;;5075988;28;20226;-80
2022/10/08 06:09:13;;;;;;;15.67;4.77;;;11.70;99.90;;;;;;5071173;28;20921;-81
2022/10/08 06:11:41;;;;;;;8.80;3.57;;;11.70;99.90;;;;;;5071869;28;20651;-81
2022/10/08 06:14:10;;;;;;;8.87;3.93;;;11.70;99.90;;;;;;5075198;28;20229;-81
2022/10/08 06:16:38;;;;;;;8.23;3.60;;;11.70;99.90;;;;;;5075077;28;20237;-84
2022/10/08 06:19:06;;;;;;;11.60;4.00;;;11.70;99.90;;;;;;5075706;28;20651;-81
2022/10/08 06:21:34;;;;;;;11.83;3.97;;;11.60;99.90;;;;;;5074034;28;20230;-81
2022/10/08 06:24:03;;;;;;;13.70;4.90;;;11.60;99.90;;;;;;5072062;28;20213;-81
2022/10/08 06:26:33;;;;;;;20.10;10.97;;;11.60;99.90;;;;;;5076263;28;20424;-81
2022/10/08 06:29:00;;;;;;;19.33;5.13;;;11.50;99.90;;;;;;5071304;28;20212;-80
2022/10/08 06:31:27;;;;;;;13.97;4.90;;;11.50;99.90;;;;;;5075873;28;20558;-81
2022/10/08 06:33:56;;;;;;;12.10;5.47;;;11.40;99.90;;;;;;5075988;28;20708;-81
2022/10/08 06:36:24;;;;;;;13.27;4.70;;;11.30;99.90;;;;;;5074641;28;20222;-81
2022/10/08 06:38:52;;;;;;;9.33;4.10;;;11.30;99.90;;;;;;5072387;28;20632;-81
2022/10/08 06:41:19;;;;;;;10.63;4.00;;;11.20;99.90;;;;;;5076603;28;20206;-81
2022/10/08 06:43:48;;;;;;;10.47;4.00;;;11.10;99.90;;;;;;5070264;28;20651;-81
2022/10/08 06:46:15;;;;;;;11.33;4.10;;;11.10;99.90;;;;;;5073673;28;20226;-81
2022/10/08 06:48:42;;;;;;;10.17;4.03;;;11.10;99.90;;;;;;5074902;28;20199;-80
2022/10/08 06:51:13;;;;;;;13.10;4.50;;;11.20;99.90;;;;;;5067263;28;20229;-81
2022/10/08 06:53:42;;;;;;;9.60;4.50;;;11.20;99.90;;;;;;5061821;28;20230;-81
2022/10/08 06:56:13;;;;;;;11.30;4.73;;;11.30;99.90;;;;;;5068333;28;20289;-80
2022/10/08 06:58:40;;;;;;;11.20;5.40;;;11.30;99.90;;;;;;5074304;28;20202;-80
2022/10/08 07:01:10;;;;;;;13.57;5.03;;;11.40;99.90;;;;;;5072995;28;20202;-80
2022/10/08 07:03:37;;;;;;;14.37;6.03;;;11.40;99.90;;;;;;5073118;28;20195;-80
2022/10/08 07:06:06;;;;;;;18.43;6.00;;;11.50;99.90;;;;;;5067975;28;20210;-80
2022/10/08 07:08:34;;;;;;;11.33;6.17;;;11.50;99.90;;;;;;5068024;28;20266;-80
2022/10/08 07:11:06;;;;;;;12.30;6.10;;;11.60;99.90;;;;;;5071876;28;20210;-81
2022/10/08 07:13:33;;;;;;;16.07;6.00;;;11.60;99.90;;;;;;5067798;28;20230;-80
2022/10/08 07:16:04;;;;;;;10.43;5.93;;;11.60;99.90;;;;;;5064093;28;20233;-80
2022/10/08 07:18:33;;;;;;;18.27;6.07;;;11.60;99.90;;;;;;5063493;28;20584;-80
2022/10/08 07:21:00;;;;;;;13.03;5.27;;;11.70;99.90;;;;;;5068654;28;20654;-80
2022/10/08 07:23:27;;;;;;;13.63;5.13;;;11.70;99.90;;;;;;5059101;28;20199;-80
2022/10/08 07:25:59;;;;;;;13.37;5.47;;;11.60;99.90;;;;;;5058940;28;20293;-80
2022/10/08 07:28:27;;;;;;;12.33;5.37;;;11.60;99.90;;;;;;5065081;28;20207;-80
2022/10/08 07:30:53;;;;;;;12.57;4.87;;;11.60;99.90;;;;;;5075382;28;20205;-80
2022/10/08 07:33:20;;;;;;;7.77;4.70;;;11.60;99.90;;;;;;5074379;28;20229;-81
2022/10/08 07:35:49;;;;;;;13.63;5.33;;;11.60;99.90;;;;;;5070052;28;20285;-83
2022/10/08 07:38:18;;;;;;;9.77;4.73;;;11.70;99.90;;;;;;5066437;28;20229;-80
2022/10/08 07:40:47;;;;;;;8.57;4.80;;;11.60;99.90;;;;;;5073406;28;20203;-81
2022/10/08 07:43:14;;;;;;;10.07;5.43;;;11.70;99.90;;;;;;5064400;28;20202;-79
2022/10/08 07:45:44;;;;;;;9.00;5.10;;;11.70;99.90;;;;;;5061402;28;20202;-79
2022/10/08 07:48:11;;;;;;;9.70;4.93;;;11.80;99.90;;;;;;5067844;28;20222;-79
2022/10/08 07:50:38;;;;;;;11.30;4.63;;;11.90;99.90;;;;;;5073690;28;20202;-79
2022/10/08 07:53:06;;;;;;;7.83;4.43;;;12.00;99.90;;;;;;5071632;28;20224;-80
2022/10/08 07:55:33;;;;;;;10.80;4.87;;;12.00;99.90;;;;;;5067554;28;20203;-80
2022/10/08 07:58:00;;;;;;;8.67;5.27;;;12.00;99.90;;;;;;5069132;28;20218;-79
2022/10/08 08:00:27;;;;;;;9.70;5.47;;;12.10;99.90;;;;;;5063217;28;20203;-79
2022/10/08 08:02:54;;;;;;;10.87;5.23;;;12.30;99.90;;;;;;5068556;28;20658;-80
2022/10/08 08:05:21;;;;;;;10.40;5.50;;;12.30;99.90;;;;;;5068647;28;20222;-81
2022/10/08 08:07:48;;;;;;;11.47;6.00;;;12.40;99.90;;;;;;5070458;28;20222;-80
2022/10/08 08:10:16;;;;;;;7.87;4.83;;;12.70;99.90;;;;;;5063410;28;20277;-79
2022/10/08 08:12:43;;;;;;;10.03;4.87;;;12.90;99.90;;;;;;5070555;28;20271;-81
2022/10/08 08:15:10;;;;;;;8.57;4.67;;;13.00;99.90;;;;;;5069862;28;20218;-81
2022/10/08 08:17:37;;;;;;;9.10;4.83;;;13.10;99.90;;;;;;5066340;28;20234;-80
2022/10/08 08:20:04;;;;;;;11.27;5.03;;;13.30;99.90;;;;;;5073508;28;20203;-81
2022/10/08 08:22:31;;;;;;;8.30;4.97;;;13.60;99.90;;;;;;5064317;28;20260;-81
2022/10/08 08:24:58;;;;;;;7.23;4.57;;;13.70;99.90;;;;;;5071076;28;20593;-81
2022/10/08 08:27:26;;;;;;;7.30;4.17;;;13.40;99.90;;;;;;5070709;28;20234;-80
2022/10/08 08:29:52;;;;;;;10.10;4.90;;;13.20;99.90;;;;;;5069771;28;20206;-81
2022/10/08 08:32:20;;;;;;;11.23;6.13;;;13.10;99.90;;;;;;5061099;28;20206;-81
2022/10/08 08:34:47;;;;;;;9.87;5.37;;;13.10;99.90;;;;;;5068038;28;20215;-82
2022/10/08 08:37:14;;;;;;;9.37;4.67;;;13.10;99.90;;;;;;5066905;28;20325;-81
2022/10/08 08:39:40;;;;;;;11.73;5.33;;;13.00;99.90;;;;;;5066602;28;20213;-81
2022/10/08 08:42:20;;;;;;;5.37;4.10;;;13.00;99.90;;;;;;5060371;28;20199;-81
2022/10/08 08:44:56;;;;;;;7.27;4.20;;;12.80;99.90;;;;;;5059252;28;20205;-81
2022/10/08 08:47:28;;;;;;;6.43;4.00;;;12.90;99.90;;;;;;5059867;28;20226;-81
2022/10/08 08:50:00;;;;;;;6.50;4.63;;;12.80;99.90;;;;;;5064257;28;20230;-81
2022/10/08 08:52:33;;;;;;;7.90;4.83;;;12.70;99.90;;;;;;5067489;28;20294;-81
2022/10/08 08:55:01;;;;;;;9.57;4.73;;;12.80;99.90;;;;;;5064046;28;20245;-81
2022/10/08 08:57:38;;;;;;;8.13;4.97;;;12.80;99.90;;;;;;5064187;28;20254;-81
2022/10/08 09:00:12;;;;;;;8.50;4.30;;;12.80;99.90;;;;;;5065252;28;20237;-81
2022/10/08 09:02:49;;;;;;;9.03;5.10;;;13.00;99.90;;;;;;5069690;28;20232;-81
2022/10/08 09:05:18;;;;;;;8.00;4.70;;;13.10;99.90;;;;;;5064804;28;20714;-81
2022/10/08 09:07:49;;;;;;;7.97;4.80;;;13.20;99.90;;;;;;5063459;28;20219;-81
2022/10/08 09:10:20;;;;;;;8.33;4.70;;;13.40;99.90;;;;;;5068376;28;20217;-81
2022/10/08 09:12:50;;;;;;;8.70;4.77;;;13.50;99.90;;;;;;5066332;28;20659;-82
2022/10/08 09:15:20;;;;;;;8.17;4.70;;;13.50;99.90;;;;;;5067326;28;20222;-81
2022/10/08 09:17:51;;;;;;;9.47;4.87;;;13.60;99.90;;;;;;5069122;28;20261;-81
2022/10/08 09:20:20;;;;;;;9.70;4.50;;;13.70;99.90;;;;;;5066844;28;20392;-82
2022/10/08 09:22:49;;;;;;;9.03;5.37;;;14.10;99.90;;;;;;5067500;28;20210;-81
2022/10/08 09:25:20;;;;;;;7.57;5.10;;;14.30;99.90;;;;;;5066462;28;20194;-81
2022/10/08 09:27:49;;;;;;;7.50;5.00;;;14.40;99.90;;;;;;5066824;28;20215;-82
2022/10/08 09:30:33;;;;;;;7.57;5.37;;;14.40;99.90;;;;;;5065753;28;20203;-81
2022/10/08 09:33:02;;;;;;;8.17;4.83;;;14.40;99.90;;;;;;5066388;28;20207;-81
2022/10/08 09:35:32;;;;;;;11.40;4.73;;;14.60;99.90;;;;;;5068901;28;20225;-82
2022/10/08 09:37:59;;;;;;;10.97;6.07;;;14.70;1.00;;;;;;5072654;28;20301;-82
2022/10/08 09:40:27;;;;;;;14.90;6.30;;;15.00;1.00;;;;;;5075321;28;20221;-81
2022/10/08 09:43:18;;;;;;;7.57;4.50;;;14.90;1.00;;;;;;5063610;28;20191;-81
2022/10/08 09:45:47;;;;;;;7.43;3.83;;;14.90;99.90;;;;;;5041324;28;20265;-82
2022/10/08 09:48:20;;;;;;;6.37;3.60;;;15.20;1.00;;;;;;5069430;28;20214;-81
2022/10/08 09:51:00;;;;;;;8.50;5.23;;;15.50;1.00;;;;;;5077717;28;20212;-82
2022/10/08 09:53:32;;;;;;;7.90;3.53;;;15.20;1.00;;;;;;5077715;28;20285;-82
2022/10/08 09:56:02;;;;;;;8.23;3.90;;;15.30;1.00;;;;;;5076444;28;20209;-82
2022/10/08 09:58:31;;;;;;;10.13;3.83;;;15.30;1.00;;;;;;5073892;28;20281;-81
2022/10/08 10:01:13;;;;;;;4.78;2.90;;;15.10;99.90;;;;;;5055867;28;20203;-81
2022/10/08 10:03:47;;;;;;;6.53;3.55;;;15.10;99.90;;;;;;5066091;28;20402;-81
2022/10/08 10:06:14;;;;;;;6.85;3.40;;;15.60;1.00;;;;;;5075933;28;20206;-82
2022/10/08 10:08:52;;;;;;;6.47;3.60;;;15.90;1.00;;;;;;5063748;28;20838;-82
2022/10/08 10:11:26;;;;;;;8.05;3.60;;;16.20;1.00;;;;;;5075942;28;20198;-82
2022/10/08 10:13:54;;;;;;;5.53;3.00;;;16.40;99.90;;;;;;5076824;28;20222;-82
2022/10/08 10:16:26;;;;;;;4.70;3.20;;;16.70;1.00;;;;;;5076473;28;20222;-82
2022/10/08 10:18:56;;;;;;;7.88;3.45;;;16.70;99.90;;;;;;5075722;28;20213;-82
2022/10/08 10:21:32;;;;;;;3.90;2.60;;;16.60;1.00;;;;;;5075687;28;20199;-82
2022/10/08 10:24:18;;;;;;;6.60;3.28;;;16.60;99.90;;;;;;5074394;28;20223;-82
2022/10/08 10:26:45;;;;;;;6.63;2.70;;;16.50;1.00;;;;;;5076387;28;20224;-82
2022/10/08 10:29:17;;;;;;;11.00;3.15;;;16.80;1.00;;;;;;5074326;28;20195;-82
2022/10/08 10:31:51;;;;;;;10.10;3.08;;;16.60;99.90;;;;;;5071731;28;20211;-81
2022/10/08 10:34:21;;;;;;;5.75;2.75;;;16.60;99.90;;;;;;5059054;28;20221;-81
2022/10/08 10:36:51;;;;;;;6.97;2.92;;;16.70;21.90;;;;;;5070783;28;20218;-81
2022/10/08 10:39:28;;;;;;;7.95;2.65;;;16.80;1.00;;;;;;5057985;28;20545;-81
2022/10/08 10:42:03;;;;;;;5.15;2.28;;;16.30;99.90;;;;;;5063326;28;20224;-81
2022/10/08 10:44:36;;;;;;;8.65;2.67;;;16.60;1.00;;;;;;5070182;28;20818;-80
2022/10/08 10:47:07;;;;;;;7.57;3.80;;;16.70;1.00;;;;;;5067740;28;20712;-81
2022/10/08 10:49:37;;;;;;;12.15;4.30;;;16.50;1.00;;;;;;5072506;28;20690;-81
2022/10/08 10:52:21;;;;;;;8.02;3.85;;;16.40;1.00;;;;;;5067033;28;20206;-81
2022/10/08 10:55:02;;;;;;;7.38;3.22;;;16.50;1.00;;;;;;5062633;28;20282;-81
2022/10/08 10:57:43;;;;;;;7.00;3.28;;;16.40;1.00;;;;;;5070391;28;20597;-81
2022/10/08 11:00:17;;;;;;;3.47;2.65;;;16.30;1.00;;;;;;5071889;28;20206;-81
2022/10/08 11:02:52;;;;;;;7.40;2.63;;;16.60;1.00;;;;;;5073589;28;20218;-82
2022/10/08 11:05:23;;;;;;;5.07;2.47;;;16.60;1.00;;;;;;5068724;28;20209;-81
2022/10/08 11:08:14;;;;;;;7.50;2.55;;;16.80;1.00;;;;;;5065415;28;20296;-81
2022/10/08 11:10:53;;;;;;;4.90;2.38;;;17.30;99.90;;;;;;5053281;28;20216;-80
2022/10/08 11:13:41;;;;;;;3.92;2.10;;;17.20;99.90;;;;;;5073065;28;20197;-81
2022/10/08 11:16:19;;;;;;;6.65;2.25;;;17.40;1.00;;;;;;5070655;28;20221;-81
2022/10/08 11:18:51;;;;;;;8.57;3.00;;;17.10;4.90;;;;;;5066459;28;20195;-81
2022/10/08 11:21:30;;;;;;;10.07;2.70;;;16.80;1.00;;;;;;5069337;28;20202;-80
2022/10/08 11:24:28;;;;;;;6.90;2.72;;;16.60;99.90;;;;;;5075104;28;20208;-80
2022/10/08 11:27:02;;;;;;;8.38;2.50;;;16.80;1.00;;;;;;5075826;28;20606;-81
2022/10/08 11:29:36;;;;;;;4.80;2.47;;;17.00;1.00;;;;;;5075813;28;20206;-81
2022/10/08 11:32:03;;;;;;;6.35;2.25;;;17.50;1.00;;;;;;5057478;28;20206;-80
2022/10/08 11:34:35;;;;;;;5.05;2.20;;;17.70;1.00;;;;;;5062787;28;20218;-81
2022/10/08 11:37:10;;;;;;;9.23;2.47;;;17.70;1.00;;;;;;5074082;28;20234;-81
2022/10/08 11:39:47;;;;;;;6.22;2.33;;;17.90;1.00;;;;;;5074381;28;20220;-81
2022/10/08 11:42:23;;;;;;;6.40;1.95;;;17.90;99.90;;;;;;5076515;28;20220;-81
2022/10/08 11:44:50;;;;;;;6.10;2.80;;;17.90;99.90;;;;;;5077403;28;20190;-81
2022/10/08 11:47:50;;;;;;;6.53;2.50;;;18.00;99.90;;;;;;5077343;28;20712;-80
2022/10/08 11:50:25;;;;;;;5.40;2.40;;;17.90;1.00;;;;;;5077014;28;20206;-80
2022/10/08 11:52:55;;;;;;;5.15;2.30;;;18.00;1.00;;;;;;5075594;28;20565;-81
2022/10/08 11:55:25;;;;;;;6.53;2.65;;;18.20;1.00;;;;;;5074703;28;20222;-81
2022/10/08 11:57:57;;;;;;;4.15;2.13;;;18.30;99.90;;;;;;5061505;28;20278;-81
2022/10/08 12:00:36;;;;;;;4.35;2.35;;;18.60;99.90;;;;;;5055628;28;20724;-81
2022/10/08 12:03:05;;;;;;;5.95;2.80;;;18.40;99.90;;;;;;5056254;28;20293;-81
2022/10/08 12:05:42;;;;;;;11.85;4.68;;;18.00;99.90;;;;;;5059476;28;20198;-80
2022/10/08 12:08:09;;;;;;;11.10;5.38;;;17.60;1.00;;;;;;5065360;28;20319;-79
2022/10/08 12:10:37;;;;;;;9.52;4.35;;;17.30;1.00;;;;;;5072982;28;20202;-80
2022/10/08 12:13:31;;;;;;;6.35;3.40;;;17.10;1.00;;;;;;5067173;28;20206;-81
2022/10/08 12:16:03;;;;;;;7.03;4.10;;;16.90;1.00;;;;;;5068636;28;20678;-80
2022/10/08 12:18:48;;;;;;;2.75;1.70;;;16.70;1.00;;;;;;5063894;28;20218;-81
2022/10/08 12:21:54;;;;;;;3.67;1.08;;;16.00;1.00;;;;;;5070231;28;20286;-80
2022/10/08 12:24:51;;;;;;;3.33;1.50;;;15.40;1.00;;;;;;5075054;28;20209;-80
2022/10/08 12:27:27;;;;;;;3.63;0.80;;;15.00;1.00;;;;;;5064728;28;20227;-80
2022/10/08 12:29:56;;;;;;;2.55;0.70;;;14.10;99.90;;;;;;5070119;28;20198;-82
2022/10/08 12:32:25;;;;;;;4.07;1.60;;;13.40;1.00;;;;;;5073787;28;20202;-81
2022/10/08 12:34:52;;;;;;;3.57;1.83;;;13.10;1.00;;;;;;5068321;28;20225;-81
2022/10/08 12:37:42;;;;;;;5.33;1.07;;;12.70;99.90;;;;;;5065797;28;20710;-80
2022/10/08 12:40:22;;;;;;;5.67;1.87;;;12.30;99.90;;;;;;5069551;28;20210;-81
2022/10/08 12:42:53;;;;;;;2.30;1.27;;;12.50;99.90;;;;;;5066050;28;20198;-82
2022/10/08 12:45:25;;;;;;;4.73;1.40;;;12.40;99.90;;;;;;5066510;28;20651;-81
2022/10/08 12:48:01;;;;;;;7.77;1.30;;;12.50;99.90;;;;;;5065602;28;20660;-81
2022/10/08 12:50:43;;;;;;;3.13;1.20;;;12.50;99.90;;;;;;5067091;28;20232;-81
2022/10/08 12:53:13;;;;;;;4.33;1.50;;;12.80;99.90;;;;;;5073400;28;20200;-81
2022/10/08 12:55:48;;;;;;;3.33;2.20;;;13.00;99.90;;;;;;5064993;28;20214;-81
2022/10/08 12:58:19;;;;;;;2.80;1.63;;;13.30;99.90;;;;;;5063340;28;20227;-81
2022/10/08 13:00:52;;;;;;;5.80;2.10;;;13.50;99.90;;;;;;5069708;28;20269;-81
2022/10/08 13:03:20;;;;;;;4.60;1.70;;;13.60;99.90;;;;;;5065467;28;20213;-81
2022/10/08 13:05:48;;;;;;;4.60;2.00;;;13.50;99.90;;;;;;5065593;28;20199;-81
2022/10/08 13:08:29;;;;;;;2.23;1.60;;;13.60;99.90;;;;;;5069029;28;20229;-81